sensor_id;sensor_type;location;lat;lon;timestamp;P1;durP1;ratioP1;P2;durP2;ratioP2
85255;SDS011;75660;52.380;4.876;2024-01-10T20:54:02;6.30;;;3.25;;
85255;SDS011;75660;52.380;4.876;2024-01-10T20:56:28;6.97;;;3.42;;
85255;SDS011;75660;52.380;4.876;2024-01-10T20:58:53;6.88;;;3.88;;
85255;SDS011;75660;52.380;4.876;2024-01-10T21:18:03;12.95;;;5.60;;
85255;SDS011;75660;52.380;4.876;2024-01-10T21:20:28;11.82;;;6.30;;
85255;SDS011;75660;52.380;4.876;2024-01-10T21:22:54;10.13;;;5.55;;
85255;SDS011;75660;52.380;4.876;2024-01-10T21:25:19;12.68;;;5.53;;
85255;SDS011;75660;52.380;4.876;2024-01-10T21:27:45;13.45;;;5.78;;
85255;SDS011;75660;52.380;4.876;2024-01-10T21:30:11;13.70;;;6.03;;
85255;SDS011;75660;52.380;4.876;2024-01-10T21:32:37;18.42;;;6.90;;
85255;SDS011;75660;52.380;4.876;2024-01-10T21:35:03;17.77;;;6.43;;
85255;SDS011;75660;52.380;4.876;2024-01-10T21:37:28;16.27;;;5.75;;
85255;SDS011;75660;52.380;4.876;2024-01-10T21:39:54;14.93;;;6.10;;
85255;SDS011;75660;52.380;4.876;2024-01-10T21:42:19;11.55;;;5.72;;
85255;SDS011;75660;52.380;4.876;2024-01-10T21:44:46;15.25;;;6.18;;
85255;SDS011;75660;52.380;4.876;2024-01-10T21:47:12;11.57;;;6.07;;
85255;SDS011;75660;52.380;4.876;2024-01-10T21:49:37;14.27;;;6.38;;
85255;SDS011;75660;52.380;4.876;2024-01-10T21:52:04;12.55;;;5.70;;
85255;SDS011;75660;52.380;4.876;2024-01-10T21:54:30;13.32;;;5.18;;
85255;SDS011;75660;52.380;4.876;2024-01-10T21:56:55;14.05;;;5.70;;
85255;SDS011;75660;52.380;4.876;2024-01-10T21:59:21;11.40;;;5.55;;
85255;SDS011;75660;52.380;4.876;2024-01-10T22:01:46;14.13;;;5.28;;
85255;SDS011;75660;52.380;4.876;2024-01-10T22:04:12;11.05;;;5.63;;
85255;SDS011;75660;52.380;4.876;2024-01-10T22:06:37;11.93;;;5.50;;
85255;SDS011;75660;52.380;4.876;2024-01-10T22:09:03;12.30;;;5.45;;
85255;SDS011;75660;52.380;4.876;2024-01-10T22:11:29;9.23;;;4.90;;
85255;SDS011;75660;52.380;4.876;2024-01-10T22:13:54;9.73;;;4.93;;
85255;SDS011;75660;52.380;4.876;2024-01-10T22:16:20;11.18;;;5.35;;
85255;SDS011;75660;52.380;4.876;2024-01-10T22:18:45;10.13;;;5.07;;
85255;SDS011;75660;52.380;4.876;2024-01-10T22:21:11;13.32;;;5.30;;
85255;SDS011;75660;52.380;4.876;2024-01-10T22:23:36;12.95;;;5.60;;
85255;SDS011;75660;52.380;4.876;2024-01-10T22:26:02;11.68;;;5.30;;
85255;SDS011;75660;52.380;4.876;2024-01-10T22:28:29;11.48;;;5.57;;
85255;SDS011;75660;52.380;4.876;2024-01-10T22:30:55;12.07;;;5.65;;
85255;SDS011;75660;52.380;4.876;2024-01-10T22:33:21;14.00;;;5.53;;
85255;SDS011;75660;52.380;4.876;2024-01-10T22:35:48;11.02;;;5.15;;
85255;SDS011;75660;52.380;4.876;2024-01-10T22:38:14;10.38;;;5.43;;
85255;SDS011;75660;52.380;4.876;2024-01-10T22:40:39;11.27;;;5.57;;
85255;SDS011;75660;52.380;4.876;2024-01-10T22:43:05;15.43;;;5.25;;
85255;SDS011;75660;52.380;4.876;2024-01-10T22:45:31;9.15;;;5.70;;
85255;SDS011;75660;52.380;4.876;2024-01-10T22:47:57;9.65;;;4.97;;
85255;SDS011;75660;52.380;4.876;2024-01-10T22:50:22;9.48;;;4.95;;
85255;SDS011;75660;52.380;4.876;2024-01-10T22:52:48;10.05;;;5.15;;
85255;SDS011;75660;52.380;4.876;2024-01-10T22:55:13;9.63;;;5.55;;
85255;SDS011;75660;52.380;4.876;2024-01-10T22:57:39;9.20;;;4.90;;
85255;SDS011;75660;52.380;4.876;2024-01-10T23:00:05;7.57;;;4.53;;
85255;SDS011;75660;52.380;4.876;2024-01-10T23:02:36;10.57;;;5.65;;
85255;SDS011;75660;52.380;4.876;2024-01-10T23:05:02;11.38;;;5.63;;
85255;SDS011;75660;52.380;4.876;2024-01-10T23:07:29;10.07;;;4.80;;
85255;SDS011;75660;52.380;4.876;2024-01-10T23:09:55;9.65;;;5.00;;
85255;SDS011;75660;52.380;4.876;2024-01-10T23:12:20;8.30;;;4.57;;
85255;SDS011;75660;52.380;4.876;2024-01-10T23:14:45;9.70;;;5.25;;
85255;SDS011;75660;52.380;4.876;2024-01-10T23:17:11;9.77;;;5.05;;
85255;SDS011;75660;52.380;4.876;2024-01-10T23:19:36;9.32;;;4.75;;
85255;SDS011;75660;52.380;4.876;2024-01-10T23:22:02;9.43;;;5.00;;
85255;SDS011;75660;52.380;4.876;2024-01-10T23:24:28;8.57;;;5.20;;
85255;SDS011;75660;52.380;4.876;2024-01-10T23:26:54;9.27;;;4.95;;
85255;SDS011;75660;52.380;4.876;2024-01-10T23:29:19;8.93;;;5.03;;
85255;SDS011;75660;52.380;4.876;2024-01-10T23:31:49;7.90;;;4.80;;
85255;SDS011;75660;52.380;4.876;2024-01-10T23:34:15;11.45;;;5.25;;
85255;SDS011;75660;52.380;4.876;2024-01-10T23:36:41;9.85;;;4.93;;
85255;SDS011;75660;52.380;4.876;2024-01-10T23:39:06;9.82;;;5.47;;
85255;SDS011;75660;52.380;4.876;2024-01-10T23:41:32;8.70;;;4.50;;
85255;SDS011;75660;52.380;4.876;2024-01-10T23:43:58;7.75;;;4.88;;
85255;SDS011;75660;52.380;4.876;2024-01-10T23:46:23;8.40;;;5.10;;
85255;SDS011;75660;52.380;4.876;2024-01-10T23:48:49;8.77;;;5.30;;
85255;SDS011;75660;52.380;4.876;2024-01-10T23:51:14;9.48;;;4.78;;
85255;SDS011;75660;52.380;4.876;2024-01-10T23:53:40;9.05;;;4.63;;
85255;SDS011;75660;52.380;4.876;2024-01-10T23:56:05;8.73;;;4.90;;
85255;SDS011;75660;52.380;4.876;2024-01-10T23:58:31;8.63;;;5.07;;
